createdAt,value
2019-05-06T00:00:56.586Z,98958.88
2019-05-06T00:05:56.289Z,98956.11
2019-05-06T00:11:01.683Z,98961.96
2019-05-06T00:16:07.175Z,98961.96
2019-05-06T00:21:14.714Z,98959.01
2019-05-06T00:26:57.234Z,98959.01
2019-05-06T00:32:04.292Z,98946.77
2019-05-06T00:37:09.771Z,98952.62
2019-05-06T00:42:34.436Z,98954.21
2019-05-06T00:47:39.495Z,98953.03
2019-05-06T00:52:45.162Z,98953.20
2019-05-06T00:57:50.756Z,98956.75
2019-05-06T01:02:58.994Z,98956.04
2019-05-06T01:08:04.405Z,98956.04
2019-05-06T01:13:29.517Z,98961.71
2019-05-06T01:18:35.341Z,98963.87
2019-05-06T01:23:45.008Z,98966.66
2019-05-06T01:28:50.574Z,98957.94
2019-05-06T01:33:56.932Z,98960.27
2019-05-06T01:39:21.514Z,98955.28
2019-05-06T01:44:26.868Z,98955.28
2019-05-06T01:49:34.010Z,98965.48
2019-05-06T01:54:39.927Z,98977.38
2019-05-06T01:59:47.415Z,98967.69
2019-05-06T02:04:55.532Z,98967.69
2019-05-06T02:10:03.956Z,98974.92
2019-05-06T02:15:09.567Z,98982.45
2019-05-06T02:20:15.146Z,98984.45
2019-05-06T02:25:34.151Z,98982.13
2019-05-06T02:30:54.802Z,98984.14
2019-05-06T02:36:25.561Z,98984.14
2019-05-06T02:41:33.705Z,98983.98
2019-05-06T02:46:44.086Z,98981.94
2019-05-06T02:51:53.446Z,98986.77
2019-05-06T02:57:03.929Z,98983.31
2019-05-06T03:02:07.840Z,98993.17
2019-05-06T03:07:14.551Z,98986.55
2019-05-06T03:12:22.625Z,98992.70
2019-05-06T03:17:28.830Z,98999.53
2019-05-06T03:22:49.564Z,99004.63
2019-05-06T03:27:56.273Z,99004.63
2019-05-06T03:33:31.412Z,99006.14
2019-05-06T03:38:09.807Z,99008.63
2019-05-06T03:43:15.980Z,99009.11
2019-05-06T03:48:28.345Z,99015.41
2019-05-06T03:53:36.809Z,99019.36
2019-05-06T03:58:44.362Z,99019.36
2019-05-06T04:03:53.779Z,99012.49
2019-05-06T04:08:59.293Z,99012.49
2019-05-06T04:14:06.929Z,99016.53
2019-05-06T04:19:20.410Z,99022.81
2019-05-06T04:24:39.437Z,98978.80
2019-05-06T04:29:44.922Z,99023.30
2019-05-06T04:34:53.204Z,99024.05
2019-05-06T04:39:57.660Z,99029.73
2019-05-06T04:45:04.545Z,99030.30
2019-05-06T04:50:13.260Z,99032.16
2019-05-06T04:55:22.657Z,99029.48
2019-05-06T05:00:33.125Z,99032.33
2019-05-06T05:05:38.987Z,99044.19
2019-05-06T05:10:59.458Z,99050.09
2019-05-06T05:16:22.168Z,99053.25
2019-05-06T05:21:27.763Z,99054.63
2019-05-06T05:26:34.866Z,99049.73
2019-05-06T05:31:40.298Z,99045.08
2019-05-06T05:36:47.325Z,99038.95
2019-05-06T05:41:54.688Z,99042.14
2019-05-06T05:47:03.456Z,99046.86
2019-05-06T05:52:12.537Z,99056.70
2019-05-06T05:57:18.158Z,99061.27
2019-05-06T06:02:23.897Z,99070.44
2019-05-06T06:07:29.175Z,99073.36
2019-05-06T06:12:34.901Z,99071.02
2019-05-06T06:17:57.911Z,99073.36
2019-05-06T06:23:13.537Z,99078.11
2019-05-06T06:28:19.085Z,99087.34
2019-05-06T06:33:24.906Z,99085.51
2019-05-06T06:38:52.593Z,99086.33
2019-05-06T06:44:03.116Z,99072.47
2019-05-06T06:49:08.800Z,99068.48
2019-05-06T06:54:14.135Z,99060.68
2019-05-06T06:59:31.865Z,99063.37
2019-05-06T07:04:48.488Z,99069.83
2019-05-06T07:09:53.813Z,99052.04
2019-05-06T07:15:02.382Z,99066.92
2019-05-06T07:20:13.091Z,99075.59
2019-05-06T07:25:18.234Z,99077.06
2019-05-06T07:30:32.808Z,99067.78
2019-05-06T07:35:43.884Z,99067.95
2019-05-06T07:40:53.037Z,99063.11
2019-05-06T07:46:02.457Z,99069.77
2019-05-06T07:51:09.266Z,99070.20
2019-05-06T07:56:22.772Z,99069.30
2019-05-06T08:01:38.874Z,99054.86
2019-05-06T08:06:52.371Z,99065.47
2019-05-06T08:11:57.803Z,99055.94
2019-05-06T08:17:04.988Z,99063.95
2019-05-06T08:22:16.822Z,99064.65
2019-05-06T08:27:23.274Z,99054.30
2019-05-06T08:32:28.747Z,99061.37
2019-05-06T08:37:37.192Z,99059.58
2019-05-06T08:42:42.926Z,99065.50
2019-05-06T08:47:48.424Z,99059.92
2019-05-06T08:53:24.231Z,99074.81
2019-05-06T08:58:47.613Z,99068.78
2019-05-06T09:04:06.414Z,99062.38
2019-05-06T09:09:02.386Z,99065.91
2019-05-06T09:14:13.128Z,99074.39
2019-05-06T09:19:17.379Z,99069.34
2019-05-06T09:24:24.432Z,99064.92
2019-05-06T09:29:39.189Z,99060.72
2019-05-06T09:34:52.734Z,99065.66
2019-05-06T09:39:58.083Z,99068.70
2019-05-06T09:45:05.904Z,99066.95
2019-05-06T09:50:13.886Z,99066.28
2019-05-06T09:55:28.683Z,99069.09
2019-05-06T10:00:37.559Z,99065.52
2019-05-06T10:05:43.081Z,99063.42
2019-05-06T10:10:58.739Z,99064.19
2019-05-06T10:15:59.634Z,99058.80
2019-05-06T10:21:05.449Z,99053.41
2019-05-06T10:26:12.939Z,99063.27
2019-05-06T10:31:18.965Z,99059.30
2019-05-06T10:36:27.153Z,99044.98
2019-05-06T10:41:37.224Z,99049.27
2019-05-06T10:46:43.041Z,99040.84
2019-05-06T10:51:54.708Z,99044.09
2019-05-06T10:57:22.303Z,99049.77
2019-05-06T11:02:58.486Z,99050.64
2019-05-06T11:08:04.052Z,99053.66
2019-05-06T11:13:12.773Z,99053.06
2019-05-06T11:18:17.717Z,99054.72
2019-05-06T11:23:23.121Z,99053.12
2019-05-06T11:29:05.880Z,99036.46
2019-05-06T11:34:32.600Z,99039.63
2019-05-06T11:39:38.595Z,99035.39
2019-05-06T11:44:47.010Z,99036.89
2019-05-06T11:49:57.022Z,99041.89
2019-05-06T11:55:34.397Z,99040.20
2019-05-06T12:00:44.199Z,99050.67
2019-05-06T12:05:52.654Z,99038.86
2019-05-06T12:11:02.922Z,99041.78
2019-05-06T12:16:14.113Z,99030.77
2019-05-06T12:21:19.639Z,99036.85
2019-05-06T12:26:25.143Z,99046.87
2019-05-06T12:31:33.131Z,99042.66
2019-05-06T12:36:42.768Z,99038.86
2019-05-06T12:42:13.805Z,99038.48
2019-05-06T12:47:32.870Z,99037.66
2019-05-06T12:52:37.715Z,99028.37
2019-05-06T12:57:53.014Z,99020.61
2019-05-06T13:03:02.256Z,99018.05
2019-05-06T13:08:09.148Z,99014.60
